Time;durP1;ratioP1;P1;durP2;ratioP2;P2;SDS_P1;SDS_P2;PMS_P1;PMS_P2;Temp;Humidity;BMP_temperature;BMP_pressure;BME280_temperature;BME280_humidity;BME280_pressure;Samples;Min_cycle;Max_cycle;Signal;HPM_P1;HPM_P2
2021/11/22 00:00:13;;;;;;;;;11.00;9.25;;;;;8.14;64.98;101214.00;5002776;28;45282;-49
2021/11/22 00:02:39;;;;;;;;;8.50;5.75;;;;;8.13;65.08;101215.72;5002465;28;45237;-49
2021/11/22 00:05:05;;;;;;;;;9.50;8.75;;;;;8.13;65.04;101210.47;5002579;28;45347;-45
2021/11/22 00:07:30;;;;;;;;;7.25;7.25;;;;;8.12;65.06;101211.34;5002389;28;45532;-47
2021/11/22 00:09:56;;;;;;;;;15.00;10.00;;;;;8.10;65.15;101206.97;5002426;28;46313;-49
2021/11/22 00:12:21;;;;;;;;;14.25;9.00;;;;;8.11;65.27;101214.88;5002399;28;45414;-46
2021/11/22 00:14:47;;;;;;;;;8.75;6.75;;;;;8.09;64.99;101211.34;5001383;28;45471;-48
2021/11/22 00:17:13;;;;;;;;;9.50;9.25;;;;;8.13;65.06;101223.56;5002139;28;45348;-49
2021/11/22 00:19:38;;;;;;;;;9.00;8.25;;;;;8.13;65.15;101220.94;5002063;28;46099;-48
2021/11/22 00:22:03;;;;;;;;;8.50;6.75;;;;;8.13;65.06;101215.72;5002354;28;45422;-46
2021/11/22 00:24:29;;;;;;;;;9.00;8.00;;;;;8.13;65.01;101212.25;5002346;28;45380;-50
2021/11/22 00:26:55;;;;;;;;;9.00;8.00;;;;;8.11;65.00;101214.88;5002015;28;45394;-50
2021/11/22 00:29:20;;;;;;;;;12.25;9.25;;;;;8.12;65.03;101224.44;5002224;28;45996;-50
2021/11/22 00:31:48;;;;;;;;;10.25;9.00;;;;;8.09;64.95;101219.19;5002277;28;45300;-50
2021/11/22 00:34:14;;;;;;;;;12.25;9.00;;;;;8.10;65.20;101214.81;5002162;28;45470;-46
2021/11/22 00:36:39;;;;;;;;;11.75;9.25;;;;;8.09;64.96;101221.81;5001964;28;45690;-48
2021/11/22 00:39:05;;;;;;;;;10.50;9.00;;;;;8.10;65.09;101220.97;5001900;28;45265;-50
2021/11/22 00:41:30;;;;;;;;;11.50;10.00;;;;;8.11;65.09;101219.19;5002066;28;45439;-50
2021/11/22 00:43:56;;;;;;;;;8.00;8.00;;;;;8.09;65.23;101223.56;5002180;28;45178;-50
2021/11/22 00:46:24;;;;;;;;;13.00;8.25;;;;;8.09;65.10;101224.44;5001980;28;45368;-49
2021/11/22 00:48:49;;;;;;;;;12.50;11.50;;;;;8.11;65.08;101227.94;5001788;28;46256;-49
2021/11/22 00:51:14;;;;;;;;;8.75;6.50;;;;;8.09;65.14;101229.69;5001881;28;45259;-45
2021/11/22 00:53:40;;;;;;;;;15.75;9.75;;;;;8.12;65.03;101234.03;5002097;28;45521;-48
2021/11/22 00:56:05;;;;;;;;;10.25;7.25;;;;;8.13;65.27;101239.28;5001829;28;45294;-49
2021/11/22 00:58:30;;;;;;;;;10.75;8.75;;;;;8.13;65.07;101236.66;5000413;28;45973;-50
2021/11/22 01:00:56;;;;;;;;;12.25;8.25;;;;;8.13;65.06;101249.75;5001448;28;45323;-48
2021/11/22 01:03:21;;;;;;;;;11.75;8.25;;;;;8.12;65.16;101247.13;5001776;28;45448;-49
2021/11/22 01:05:46;;;;;;;;;7.25;6.00;;;;;8.13;65.07;101257.59;5001740;28;45679;-50
2021/11/22 01:08:12;;;;;;;;;10.75;6.00;;;;;8.14;65.08;101264.59;5000514;28;46041;-49
2021/11/22 01:10:38;;;;;;;;;10.75;7.25;;;;;8.12;65.02;101263.69;5001363;28;45289;-45
2021/11/22 01:13:04;;;;;;;;;10.00;7.25;;;;;8.12;64.80;101265.47;5001686;28;45356;-46
2021/11/22 01:15:33;;;;;;;;;9.75;9.00;;;;;8.12;65.03;101265.47;5001241;28;45176;-49
2021/11/22 01:17:58;;;;;;;;;8.25;6.00;;;;;8.10;65.10;101260.22;5001064;28;45300;-47
2021/11/22 01:20:31;;;;;;;;;10.00;9.50;;;;;8.12;65.09;101266.31;5001175;28;45270;-48
2021/11/22 01:23:08;;;;;;;;;10.50;9.50;;;;;8.11;64.87;101267.22;5001755;28;45237;-47
2021/11/22 01:25:34;;;;;;;;;11.00;10.50;;;;;8.12;64.97;101270.69;5001159;28;45394;-46
2021/11/22 01:28:01;;;;;;;;;8.25;8.00;;;;;8.11;65.20;101277.69;5001320;28;47091;-45
2021/11/22 01:30:26;;;;;;;;;10.50;7.00;;;;;8.11;65.01;101276.78;4999813;28;45610;-50
2021/11/22 01:32:52;;;;;;;;;10.00;9.00;;;;;8.10;65.06;101268.09;5001333;28;45430;-48
2021/11/22 01:35:17;;;;;;;;;11.50;9.00;;;;;8.10;65.06;101267.19;5000866;28;45311;-46
2021/11/22 01:37:43;;;;;;;;;11.25;9.00;;;;;8.07;65.10;101268.06;5000416;28;46293;-46
2021/11/22 01:40:11;;;;;;;;;9.25;8.00;;;;;8.08;64.88;101272.41;5000800;28;45489;-45
2021/11/22 01:42:38;;;;;;;;;12.75;10.25;;;;;8.08;65.07;101280.28;5000049;28;45295;-48
2021/11/22 01:45:05;;;;;;;;;9.00;8.75;;;;;8.08;64.95;101277.66;4999561;28;45414;-49
2021/11/22 01:47:31;;;;;;;;;10.75;7.75;;;;;8.04;65.03;101269.81;5000852;28;46376;-48
2021/11/22 01:49:56;;;;;;;;;10.50;6.50;;;;;8.07;65.10;101273.28;5000627;28;45391;-45
2021/11/22 01:52:22;;;;;;;;;12.75;9.00;;;;;8.08;65.03;101284.66;5001021;28;45249;-45
2021/11/22 01:54:49;;;;;;;;;15.50;10.75;;;;;8.06;64.94;101274.19;5000714;28;45320;-46
2021/11/22 01:57:15;;;;;;;;;11.25;9.50;;;;;8.07;64.83;101286.38;5000876;28;46213;-46
2021/11/22 01:59:40;;;;;;;;;11.25;6.50;;;;;8.07;64.92;101286.38;5000654;28;45443;-46
2021/11/22 02:02:06;;;;;;;;;11.25;9.00;;;;;8.07;65.02;101286.38;5000865;28;45431;-47
2021/11/22 02:04:32;;;;;;;;;7.25;6.50;;;;;8.09;64.97;101294.25;5000424;28;45446;-47
2021/11/22 02:06:57;;;;;;;;;10.00;8.75;;;;;8.08;65.27;101298.59;5000788;28;46153;-49
2021/11/22 02:09:23;;;;;;;;;15.25;12.00;;;;;8.08;65.03;101290.75;5000361;28;45340;-46
2021/11/22 02:11:48;;;;;;;;;7.75;7.75;;;;;8.08;65.18;101289.88;5001014;28;45344;-47
2021/11/22 02:14:14;;;;;;;;;10.00;10.00;;;;;8.07;64.88;101293.38;5000428;28;45446;-47
2021/11/22 02:16:39;;;;;;;;;14.50;10.25;;;;;8.06;65.20;101302.97;5000537;28;45364;-46
2021/11/22 02:19:04;;;;;;;;;12.25;10.75;;;;;8.07;65.02;101294.22;5000099;28;45367;-46
2021/11/22 02:21:30;;;;;;;;;11.00;9.25;;;;;8.07;65.15;101301.22;5000776;28;45329;-47
2021/11/22 02:23:57;;;;;;;;;10.00;8.50;;;;;8.06;64.98;101299.47;5000271;28;45409;-49
2021/11/22 02:26:22;;;;;;;;;10.50;7.00;;;;;8.08;65.02;101310.81;5000334;28;46141;-48
2021/11/22 02:28:48;;;;;;;;;9.25;8.25;;;;;8.07;64.71;101306.44;5000227;28;45233;-44
2021/11/22 02:31:13;;;;;;;;;10.00;9.00;;;;;8.07;64.78;101307.31;4999408;28;45284;-44
2021/11/22 02:33:39;;;;;;;;;17.25;8.75;;;;;8.07;64.96;101309.06;5000004;28;45376;-46
2021/11/22 02:36:05;;;;;;;;;6.00;5.50;;;;;8.05;65.15;101306.44;5000297;28;45248;-45
2021/11/22 02:38:36;;;;;;;;;10.50;8.25;;;;;8.03;64.91;101313.41;5000167;28;45230;-46
2021/11/22 02:41:04;;;;;;;;;10.00;10.00;;;;;8.02;64.78;101309.03;4998920;28;45366;-49
2021/11/22 02:43:31;;;;;;;;;9.75;5.00;;;;;8.02;64.83;101310.78;5000136;28;45446;-46
2021/11/22 02:45:57;;;;;;;;;8.75;6.50;;;;;8.02;64.78;101322.13;5000199;28;46127;-50
2021/11/22 02:48:22;;;;;;;;;6.00;6.00;;;;;7.98;65.04;101307.28;4999009;28;45417;-46
2021/11/22 02:50:48;;;;;;;;;13.75;7.00;;;;;7.97;64.87;101319.50;4999983;28;45335;-47
2021/11/22 02:53:14;;;;;;;;;8.75;6.75;;;;;7.97;64.72;101316.00;5000114;28;45336;-46
2021/11/22 02:55:40;;;;;;;;;10.25;8.00;;;;;7.96;64.90;101315.13;5000039;28;46183;-45
2021/11/22 02:58:06;;;;;;;;;9.75;8.50;;;;;7.95;64.72;101317.75;4999959;28;45324;-49
2021/11/22 03:00:35;;;;;;;;;9.50;8.50;;;;;7.95;64.83;101315.13;5000064;28;45261;-46
2021/11/22 03:03:01;;;;;;;;;8.50;7.25;;;;;7.93;64.58;101312.47;4998298;28;45509;-49
2021/11/22 03:05:26;;;;;;;;;6.00;6.00;;;;;7.91;64.87;101318.56;4999891;28;45351;-47
2021/11/22 03:07:54;;;;;;;;;10.75;9.75;;;;;7.89;64.64;101322.94;4998537;28;45264;-45
2021/11/22 03:10:22;;;;;;;;;8.50;8.25;;;;;7.87;64.80;101327.28;4998664;28;45409;-48
2021/11/22 03:12:48;;;;;;;;;10.00;7.25;;;;;7.86;64.63;101328.13;4999641;28;45308;-47
2021/11/22 03:15:17;;;;;;;;;14.50;9.00;;;;;7.84;64.67;101330.75;4999719;28;46492;-47
2021/11/22 03:17:44;;;;;;;;;9.00;8.75;;;;;7.80;64.83;101327.22;4999482;28;45233;-48
2021/11/22 03:20:13;;;;;;;;;12.50;11.00;;;;;7.81;65.09;101330.72;4999765;28;45534;-49
2021/11/22 03:22:39;;;;;;;;;10.50;9.25;;;;;7.81;64.73;101346.41;5000031;28;45472;-45
2021/11/22 03:25:06;;;;;;;;;10.25;9.00;;;;;7.77;64.68;101342.03;4998108;28;46443;-47
2021/11/22 03:27:32;;;;;;;;;10.25;9.00;;;;;7.78;64.79;101341.16;4999772;28;45450;-49
2021/11/22 03:29:57;;;;;;;;;10.25;10.25;;;;;7.76;64.69;101350.75;4999692;28;45328;-45
2021/11/22 03:32:23;;;;;;;;;14.75;10.00;;;;;7.74;64.87;101353.34;4999613;28;45373;-49
2021/11/22 03:34:48;;;;;;;;;11.75;10.50;;;;;7.70;64.65;101342.84;4999387;28;45371;-48
2021/11/22 03:37:15;;;;;;;;;10.00;10.00;;;;;7.69;64.69;101346.34;4998361;28;45340;-50
2021/11/22 03:39:45;;;;;;;;;10.50;6.00;;;;;7.68;64.75;101353.31;4998176;28;45355;-47
2021/11/22 03:42:14;;;;;;;;;14.00;8.00;;;;;7.68;64.69;101349.81;4999425;28;45434;-47
2021/11/22 03:44:40;;;;;;;;;7.75;5.50;;;;;7.64;64.74;101354.16;4999436;28;45935;-46
2021/11/22 03:47:05;;;;;;;;;12.00;11.00;;;;;7.63;64.63;101357.63;4999350;28;45368;-47
2021/11/22 03:49:33;;;;;;;;;8.25;8.00;;;;;7.62;64.40;101367.22;4999391;28;45291;-46
2021/11/22 03:51:59;;;;;;;;;9.00;8.25;;;;;7.60;64.69;101365.47;4999428;28;45227;-47
2021/11/22 03:54:25;;;;;;;;;7.50;7.50;;;;;7.60;64.46;101362.84;4999077;28;45483;-48
2021/11/22 03:56:50;;;;;;;;;9.25;7.75;;;;;7.60;64.52;101365.47;4999362;28;45315;-46
2021/11/22 03:59:15;;;;;;;;;12.25;8.75;;;;;7.54;64.65;101371.50;4997963;28;45202;-47
2021/11/22 04:01:41;;;;;;;;;8.75;5.75;;;;;7.55;64.62;101381.13;5001840;28;45266;-47
2021/11/22 04:04:06;;;;;;;;;8.75;8.75;;;;;7.53;64.48;101379.34;5002381;28;45372;-49
2021/11/22 04:06:32;;;;;;;;;11.00;9.25;;;;;7.52;64.61;101382.81;5002749;28;45241;-48
2021/11/22 04:08:57;;;;;;;;;11.75;10.25;;;;;7.51;64.21;101386.28;5002531;28;45463;-46
2021/11/22 04:11:23;;;;;;;;;9.00;9.00;;;;;7.48;64.56;101388.03;5001253;28;45516;-48
2021/11/22 04:13:48;;;;;;;;;15.25;11.00;;;;;7.47;64.60;101388.00;5002364;28;45461;-46
2021/11/22 04:16:14;;;;;;;;;9.25;9.00;;;;;7.45;64.55;101382.75;5002356;28;45383;-45
2021/11/22 04:18:40;;;;;;;;;13.00;9.50;;;;;7.43;64.57;101388.84;5002446;28;45370;-46
2021/11/22 04:21:06;;;;;;;;;10.50;9.75;;;;;7.42;64.55;101397.56;5002305;28;45421;-46
2021/11/22 04:23:32;;;;;;;;;7.50;7.00;;;;;7.40;64.66;101396.69;5002205;28;45400;-46
2021/11/22 04:25:57;;;;;;;;;11.00;8.25;;;;;7.39;64.53;101397.53;5002307;28;45346;-49
2021/11/22 04:28:23;;;;;;;;;13.25;11.00;;;;;7.34;64.73;101397.47;5002258;28;45251;-46
2021/11/22 04:30:48;;;;;;;;;9.25;9.00;;;;;7.37;64.59;101412.31;5002344;28;45502;-47
2021/11/22 04:33:14;;;;;;;;;14.00;11.00;;;;;7.34;64.51;101402.72;5000474;28;48401;-47
2021/11/22 04:35:39;;;;;;;;;20.50;12.25;;;;;7.35;64.65;101414.06;5002340;28;45251;-46
2021/11/22 04:38:05;;;;;;;;;15.00;11.00;;;;;7.32;64.37;101417.53;5002240;28;45241;-47
2021/11/22 04:40:30;;;;;;;;;19.00;11.00;;;;;7.31;64.34;101421.00;5000749;28;45402;-48
2021/11/22 04:42:56;;;;;;;;;12.25;12.25;;;;;7.30;64.60;101424.47;5000847;28;46464;-49
2021/11/22 04:45:25;;;;;;;;;15.50;13.75;;;;;7.29;64.32;101434.03;5002046;28;45420;-48
2021/11/22 04:47:51;;;;;;;;;13.50;10.75;;;;;7.27;64.31;101429.66;5001808;28;45288;-47
2021/11/22 04:50:18;;;;;;;;;17.25;11.75;;;;;7.25;64.40;101440.09;5001809;28;45285;-49
2021/11/22 04:52:45;;;;;;;;;19.25;12.25;;;;;7.23;64.50;101434.00;5001697;28;45311;-47
2021/11/22 04:55:14;;;;;;;;;15.50;13.25;;;;;7.23;64.47;101434.00;5001708;28;45410;-50
2021/11/22 04:57:40;;;;;;;;;16.25;15.00;;;;;7.23;64.41;101443.56;5001696;28;45338;-48
2021/11/22 05:00:06;;;;;;;;;12.25;11.00;;;;;7.22;64.54;101452.25;5001853;28;45377;-46
2021/11/22 05:02:32;;;;;;;;;14.00;11.50;;;;;7.21;64.49;101450.50;5001293;28;46970;-49
2021/11/22 05:04:57;;;;;;;;;11.75;11.50;;;;;7.20;64.32;101454.00;5001502;28;45334;-47
2021/11/22 05:07:22;;;;;;;;;14.25;11.00;;;;;7.18;64.53;101445.25;5001841;28;45317;-50
2021/11/22 05:09:48;;;;;;;;;15.50;12.25;;;;;7.17;64.31;101454.84;5001602;28;45593;-47
2021/11/22 05:12:15;;;;;;;;;12.25;11.00;;;;;7.18;64.47;101456.56;5000266;28;46140;-49
2021/11/22 05:14:40;;;;;;;;;15.75;12.25;;;;;7.13;64.53;101459.16;5000372;28;45304;-47
2021/11/22 05:17:06;;;;;;;;;17.75;14.00;;;;;7.13;64.44;101461.75;5001272;28;45460;-45
2021/11/22 05:19:32;;;;;;;;;21.75;12.00;;;;;7.12;64.27;101460.00;5001304;28;45480;-45
2021/11/22 05:21:58;;;;;;;;;16.75;16.25;;;;;7.12;64.51;101466.97;5001098;28;46406;-47
2021/11/22 05:24:24;;;;;;;;;19.75;17.00;;;;;7.10;64.48;101469.56;5001171;28;45336;-48
2021/11/22 05:26:49;;;;;;;;;17.75;15.75;;;;;7.12;64.47;101477.44;5001648;28;45298;-49
2021/11/22 05:29:14;;;;;;;;;14.75;14.00;;;;;7.10;64.62;101480.00;5001411;28;45311;-47
2021/11/22 05:31:40;;;;;;;;;26.75;25.00;;;;;7.10;64.51;101480.00;5001317;28;45462;-48
2021/11/22 05:34:05;;;;;;;;;18.00;15.75;;;;;7.09;64.29;101477.38;5001035;28;45328;-47
2021/11/22 05:36:35;;;;;;;;;18.25;16.75;;;;;7.07;64.52;101476.47;5001402;28;45396;-46
2021/11/22 05:39:00;;;;;;;;;16.75;13.00;;;;;7.08;64.60;101486.97;5001075;28;46515;-48
2021/11/22 05:41:25;;;;;;;;;15.25;12.75;;;;;7.07;64.33;101486.94;5000992;28;46162;-49
2021/11/22 05:43:51;;;;;;;;;20.75;18.25;;;;;7.05;64.60;101492.16;5001295;28;45221;-46
2021/11/22 05:46:16;;;;;;;;;18.00;16.75;;;;;7.06;64.34;101495.66;5001105;28;45224;-45
2021/11/22 05:48:41;;;;;;;;;15.25;14.75;;;;;6.99;64.41;101494.69;5000854;28;45238;-48
2021/11/22 05:51:08;;;;;;;;;22.75;21.00;;;;;6.98;64.64;101490.31;5000947;28;45564;-45
2021/11/22 05:53:35;;;;;;;;;19.00;17.75;;;;;7.00;64.49;101501.66;5000918;28;45351;-46
2021/11/22 05:56:03;;;;;;;;;20.50;17.75;;;;;6.97;64.54;101489.44;5000655;28;45332;-48
2021/11/22 05:58:31;;;;;;;;;20.25;18.25;;;;;6.98;64.78;101499.03;5000858;28;45225;-46
2021/11/22 06:00:57;;;;;;;;;26.00;19.50;;;;;6.98;64.68;101501.66;5000332;28;46256;-50
2021/11/22 06:03:23;;;;;;;;;23.75;22.00;;;;;6.99;64.52;101511.25;4982912;28;45253;-48
2021/11/22 06:05:48;;;;;;;;;25.75;20.25;;;;;6.99;64.75;101508.66;5000710;28;46054;-47
2021/11/22 06:08:14;;;;;;;;;24.25;22.25;;;;;7.00;64.54;101505.16;5000996;28;45478;-47
2021/11/22 06:10:40;;;;;;;;;21.75;19.50;;;;;7.00;64.71;101517.34;5000421;28;46076;-46
2021/11/22 06:13:05;;;;;;;;;23.00;22.00;;;;;7.02;64.75;101527.81;4999288;28;45299;-49
2021/11/22 06:15:31;;;;;;;;;27.25;23.25;;;;;7.03;64.45;101521.75;5000606;28;45366;-45
2021/11/22 06:17:57;;;;;;;;;33.75;26.25;;;;;7.03;64.61;101535.69;5000555;28;45375;-47
2021/11/22 06:20:22;;;;;;;;;28.00;25.00;;;;;7.04;64.69;101536.56;5000442;28;45510;-47
2021/11/22 06:22:48;;;;;;;;;27.75;24.00;;;;;7.06;64.72;101546.19;5000284;28;45380;-49
2021/11/22 06:25:13;;;;;;;;;41.50;34.50;;;;;7.08;64.85;101560.16;5000498;28;45252;-47
2021/11/22 06:27:38;;;;;;;;;24.50;23.25;;;;;7.07;64.88;101554.88;5000484;28;45570;-48
2021/11/22 06:30:06;;;;;;;;;27.25;25.00;;;;;7.10;64.77;101568.00;5000317;28;45316;-45
2021/11/22 06:32:32;;;;;;;;;32.50;26.75;;;;;7.12;64.95;101568.94;5000309;28;45324;-48
2021/11/22 06:34:58;;;;;;;;;28.25;22.25;;;;;7.13;64.86;101570.66;5000065;28;45433;-46
2021/11/22 06:37:26;;;;;;;;;28.00;24.25;;;;;7.12;64.56;101575.03;5000285;28;45520;-48
2021/11/22 06:39:52;;;;;;;;;27.00;21.00;;;;;7.13;64.86;101581.13;4999776;28;45457;-44
2021/11/22 06:42:20;;;;;;;;;27.50;24.25;;;;;7.18;64.82;101591.63;5000025;28;45439;-45
2021/11/22 06:44:46;;;;;;;;;24.50;24.50;;;;;7.21;64.89;101589.06;4998760;28;45260;-45
2021/11/22 06:47:11;;;;;;;;;29.00;25.50;;;;;7.23;64.75;101600.41;4982332;28;45342;-46
2021/11/22 06:49:36;;;;;;;;;29.75;29.25;;;;;7.24;65.02;101591.72;4999691;28;46265;-48
2021/11/22 06:52:02;;;;;;;;;25.50;21.75;;;;;7.25;64.66;101594.34;4998768;28;45187;-49
2021/11/22 06:54:27;;;;;;;;;35.00;29.75;;;;;7.28;64.82;101603.97;4999944;28;45230;-47
2021/11/22 06:56:53;;;;;;;;;24.75;21.75;;;;;7.27;64.82;101596.97;4999069;28;45530;-46
2021/11/22 06:59:18;;;;;;;;;24.00;22.00;;;;;7.30;64.79;101603.13;4999679;28;45421;-47
2021/11/22 07:01:44;;;;;;;;;22.50;20.25;;;;;7.32;64.97;101603.19;4999805;28;45308;-45
2021/11/22 07:04:09;;;;;;;;;21.25;18.00;;;;;7.35;64.87;101602.34;4999751;28;45322;-44
2021/11/22 07:06:35;;;;;;;;;19.50;18.00;;;;;7.35;64.93;101600.59;4999952;28;45319;-44
2021/11/22 07:09:00;;;;;;;;;22.75;21.25;;;;;7.37;64.92;101597.97;4998269;28;47067;-46
2021/11/22 07:11:26;;;;;;;;;21.75;21.75;;;;;7.39;64.74;101611.97;4999915;28;45318;-47
2021/11/22 07:13:51;;;;;;;;;22.00;19.50;;;;;7.40;64.68;101609.38;4998653;28;45324;-48
2021/11/22 07:16:17;;;;;;;;;24.00;19.50;;;;;7.43;64.85;101616.38;4999662;28;45270;-48
2021/11/22 07:18:42;;;;;;;;;22.00;17.75;;;;;7.47;64.63;101620.78;4999498;28;45950;-51
2021/11/22 07:21:08;;;;;;;;;22.75;19.50;;;;;7.47;64.95;101621.66;4999950;28;45340;-46
2021/11/22 07:23:34;;;;;;;;;23.25;21.00;;;;;7.49;64.81;101622.53;4999843;28;45189;-49
2021/11/22 07:25:59;;;;;;;;;18.75;18.00;;;;;7.54;64.92;101629.59;4999686;28;45486;-47
2021/11/22 07:28:26;;;;;;;;;28.00;20.50;;;;;7.55;64.86;101636.59;4999636;28;45435;-47
2021/11/22 07:30:52;;;;;;;;;22.25;16.25;;;;;7.58;64.83;101644.47;4999700;28;45216;-50
2021/11/22 07:33:17;;;;;;;;;15.50;14.75;;;;;7.60;64.69;101634.91;4998139;28;45265;-45
2021/11/22 07:35:43;;;;;;;;;19.75;18.75;;;;;7.61;64.79;101647.09;5001238;28;45233;-49
2021/11/22 07:38:09;;;;;;;;;19.75;18.50;;;;;7.67;64.72;101657.66;5002722;28;47123;-49
2021/11/22 07:40:35;;;;;;;;;24.00;22.00;;;;;7.69;64.80;101658.56;5002880;28;45319;-50
2021/11/22 07:43:01;;;;;;;;;25.00;17.50;;;;;7.70;64.77;101657.69;5002911;28;45354;-47
2021/11/22 07:45:26;;;;;;;;;30.25;20.25;;;;;7.72;64.88;101671.69;5003003;28;45293;-48
2021/11/22 07:47:53;;;;;;;;;20.75;17.25;;;;;7.72;64.80;101662.94;5002480;28;46496;-47
2021/11/22 07:50:21;;;;;;;;;20.00;19.50;;;;;7.76;64.71;101672.59;5002836;28;45479;-48
2021/11/22 07:52:46;;;;;;;;;21.00;18.00;;;;;7.77;64.83;101683.09;5002699;28;45190;-49
2021/11/22 07:55:11;;;;;;;;;19.00;18.00;;;;;7.79;64.93;101676.13;5001167;28;45244;-47
2021/11/22 07:57:37;;;;;;;;;19.75;18.25;;;;;7.83;65.02;101676.19;5002542;28;45280;-48
2021/11/22 08:00:09;;;;;;;;;20.50;18.00;;;;;7.87;64.89;101684.06;5002467;28;45243;-46
2021/11/22 08:02:35;;;;;;;;;16.50;16.00;;;;;7.89;64.99;101687.59;5001167;28;45612;-47
2021/11/22 08:05:02;;;;;;;;;20.50;17.50;;;;;7.92;64.84;101684.13;5002570;28;45540;-46
2021/11/22 08:07:27;;;;;;;;;16.50;16.00;;;;;7.93;64.90;101694.59;5002348;28;46089;-48
2021/11/22 08:10:03;;;;;;;;;18.25;15.50;;;;;7.97;64.86;101685.94;5000918;28;45911;-47
2021/11/22 08:12:29;;;;;;;;;18.25;11.75;;;;;8.00;65.02;101685.09;5002355;28;45486;-48
2021/11/22 08:15:02;;;;;;;;;19.25;13.50;;;;;8.04;64.89;101696.50;5001111;28;46174;-50
2021/11/22 08:17:29;;;;;;;;;19.25;15.50;;;;;8.07;64.78;101701.75;5002055;28;45252;-47
2021/11/22 08:19:56;;;;;;;;;17.00;16.00;;;;;8.12;64.72;101685.22;5001936;28;45371;-50
2021/11/22 08:22:23;;;;;;;;;18.50;13.75;;;;;8.16;64.85;101696.59;5002063;28;45350;-49
2021/11/22 08:24:53;;;;;;;;;16.00;14.25;;;;;8.20;65.12;101697.53;5000890;28;46090;-49
2021/11/22 08:27:23;;;;;;;;;15.25;13.50;;;;;8.25;64.68;101704.59;5001883;28;47320;-47
2021/11/22 08:29:50;;;;;;;;;16.75;15.00;;;;;8.30;64.99;101712.47;5002151;28;45256;-46
2021/11/22 08:32:16;;;;;;;;;19.00;14.75;;;;;8.35;64.79;101702.06;5002092;28;45439;-48
2021/11/22 08:34:41;;;;;;;;;14.50;13.25;;;;;8.39;64.90;101701.22;4984263;28;45563;-50
2021/11/22 08:37:07;;;;;;;;;17.75;15.25;;;;;8.38;64.72;101691.63;5001784;28;45929;-46
2021/11/22 08:39:32;;;;;;;;;15.75;14.75;;;;;8.52;64.86;101710.13;5001885;28;45238;-45
2021/11/22 08:41:58;;;;;;;;;14.50;13.00;;;;;8.57;64.60;101713.66;5000810;28;45675;-47
2021/11/22 08:44:24;;;;;;;;;11.75;11.75;;;;;8.54;64.68;101703.13;5002017;28;45338;-46
2021/11/22 08:46:49;;;;;;;;;12.75;11.25;;;;;8.68;64.56;101727.75;5001617;28;46137;-47
2021/11/22 08:49:16;;;;;;;;;17.00;11.25;;;;;8.70;64.47;101723.38;5001663;28;45330;-46
2021/11/22 08:51:42;;;;;;;;;19.75;15.50;;;;;8.77;64.31;101724.34;5000660;28;45340;-50
2021/11/22 08:54:07;;;;;;;;;15.00;11.50;;;;;8.80;64.66;101736.59;4983956;28;45308;-49
2021/11/22 08:56:33;;;;;;;;;15.50;14.00;;;;;8.86;64.39;101736.66;5001458;28;46063;-49
2021/11/22 08:58:59;;;;;;;;;15.00;13.50;;;;;8.90;64.54;101728.78;5001572;28;45311;-49
2021/11/22 09:01:24;;;;;;;;;15.75;12.00;;;;;8.98;64.44;101735.84;5001599;28;45219;-49
2021/11/22 09:03:51;;;;;;;;;15.25;14.50;;;;;8.96;64.64;101728.00;5001620;28;45350;-46
2021/11/22 09:06:19;;;;;;;;;18.25;14.50;;;;;9.11;64.18;101745.59;5001472;28;46253;-49
2021/11/22 09:08:44;;;;;;;;;13.00;13.00;;;;;9.17;64.35;101744.75;5001316;28;45402;-49
2021/11/22 09:11:10;;;;;;;;;16.75;13.75;;;;;9.23;64.19;101756.19;5001447;28;45256;-46
2021/11/22 09:13:35;;;;;;;;;15.25;12.75;;;;;9.31;64.38;101756.22;5001563;28;45529;-48
2021/11/22 09:16:01;;;;;;;;;14.00;12.50;;;;;9.35;64.41;101751.88;5001123;28;46214;-47
2021/11/22 09:18:26;;;;;;;;;13.75;11.00;;;;;9.46;64.17;101758.09;5001289;28;45410;-45
2021/11/22 09:20:52;;;;;;;;;17.00;14.00;;;;;9.52;64.38;101763.38;5001371;28;45431;-45
2021/11/22 09:23:18;;;;;;;;;12.50;11.50;;;;;9.59;64.29;101762.53;5001298;28;45262;-46
2021/11/22 09:25:43;;;;;;;;;12.25;10.25;;;;;9.72;64.04;101770.47;5000984;28;45958;-45
2021/11/22 09:28:10;;;;;;;;;13.75;11.50;;;;;9.82;64.12;101774.91;5001471;28;45229;-45
2021/11/22 09:30:36;;;;;;;;;13.75;13.00;;;;;9.93;64.04;101781.09;5001198;28;45280;-46
2021/11/22 09:33:03;;;;;;;;;11.25;11.00;;;;;10.03;64.23;101779.38;5001104;28;45311;-47
2021/11/22 09:35:29;;;;;;;;;6.00;6.00;;;;;10.15;64.25;101781.22;5001010;28;46055;-47
2021/11/22 09:37:55;;;;;;;;;10.50;9.75;;;;;10.21;64.23;101782.97;5001146;28;45347;-46
2021/11/22 09:40:20;;;;;;;;;7.00;6.75;;;;;10.31;64.13;101779.50;5000952;28;45265;-49
2021/11/22 09:42:46;;;;;;;;;14.00;11.25;;;;;10.39;64.32;101788.34;5001408;28;45324;-46
2021/11/22 09:45:11;;;;;;;;;12.75;10.25;;;;;10.48;64.23;101790.13;4999691;28;46004;-48
2021/11/22 09:47:38;;;;;;;;;7.75;7.75;;;;;10.55;63.98;101801.50;4999568;28;45387;-49
2021/11/22 09:50:06;;;;;;;;;7.75;7.75;;;;;10.62;63.88;101797.16;5001092;28;45318;-45
2021/11/22 09:52:32;;;;;;;;;8.00;8.00;;;;;10.71;63.81;101808.56;4999581;28;45419;-46
2021/11/22 09:54:58;;;;;;;;;11.50;9.75;;;;;10.78;63.47;101812.09;5000417;28;45967;-49
2021/11/22 09:57:23;;;;;;;;;11.00;10.50;;;;;10.81;63.82;101809.47;5000684;28;45426;-49
2021/11/22 09:59:48;;;;;;;;;8.75;8.00;;;;;10.89;63.72;101817.34;5000437;28;45249;-46
2021/11/22 10:02:14;;;;;;;;;13.00;8.75;;;;;10.96;63.87;101813.00;4999284;28;45509;-48
2021/11/22 10:04:40;;;;;;;;;19.00;16.75;;;;;11.01;63.77;101806.84;5000452;28;45423;-46
2021/11/22 10:07:08;;;;;;;;;11.50;9.75;;;;;11.11;63.71;101825.31;5000779;28;45263;-47
2021/11/22 10:09:35;;;;;;;;;8.50;8.00;;;;;11.19;63.80;101820.91;5000712;28;45265;-47
2021/11/22 10:12:04;;;;;;;;;10.00;10.00;;;;;11.25;63.40;101813.00;5000460;28;45222;-50
2021/11/22 10:14:36;;;;;;;;;11.00;10.25;;;;;11.33;63.42;101813.91;5000483;28;46523;-45
2021/11/22 10:17:18;;;;;;;;;8.25;7.50;;;;;11.42;63.43;101823.56;5000330;28;45241;-46
2021/11/22 10:19:43;;;;;;;;;11.00;10.00;;;;;11.51;63.30;101835.84;5000510;28;45367;-50
2021/11/22 10:22:19;;;;;;;;;14.00;11.25;;;;;11.58;63.43;101824.41;5000198;28;45380;-45
2021/11/22 10:24:45;;;;;;;;;7.25;7.25;;;;;11.60;63.35;101830.56;5000380;28;46313;-48
2021/11/22 10:27:10;;;;;;;;;6.50;6.50;;;;;11.66;63.29;101824.38;4998974;28;46209;-49
2021/11/22 10:29:36;;;;;;;;;10.00;9.00;;;;;11.72;63.37;101824.38;4999365;28;45216;-47
2021/11/22 10:32:04;;;;;;;;;9.25;8.50;;;;;11.78;63.16;101836.66;5000324;28;45448;-46
2021/11/22 10:34:35;;;;;;;;;7.75;7.75;;;;;11.80;63.19;101827.03;5000149;28;46235;-45
2021/11/22 10:37:06;;;;;;;;;9.50;8.25;;;;;11.82;62.98;101836.66;5000236;28;45240;-48
2021/11/22 10:39:33;;;;;;;;;9.25;8.00;;;;;11.85;63.28;101835.78;5000343;28;45304;-47
2021/11/22 10:41:59;;;;;;;;;11.25;8.50;;;;;11.87;62.99;101834.91;5000012;28;45528;-45
2021/11/22 10:44:29;;;;;;;;;8.00;8.00;;;;;11.89;62.89;101832.25;5000210;28;45356;-48
2021/11/22 10:47:14;;;;;;;;;9.00;9.00;;;;;11.90;62.92;101844.56;5000102;28;45298;-46
2021/11/22 10:52:25;;;;;;;;;10.25;9.00;;;;;11.95;62.71;101842.78;5000053;28;45458;-45
2021/11/22 10:54:54;;;;;;;;;11.00;9.50;;;;;11.98;62.67;101842.78;4999814;28;46121;-48
2021/11/22 10:57:19;;;;;;;;;9.00;8.00;;;;;12.02;62.73;101849.84;4999993;28;45232;-51
2021/11/22 10:59:45;;;;;;;;;10.00;9.00;;;;;12.09;62.48;101847.16;4998721;28;45454;-45
2021/11/22 11:02:10;;;;;;;;;9.25;7.00;;;;;12.12;62.51;101850.66;5000058;28;45515;-46
2021/11/22 11:04:42;;;;;;;;;8.50;8.25;;;;;12.20;62.59;101848.03;4999561;28;46223;-49
2021/11/22 11:07:09;;;;;;;;;8.00;7.75;;;;;12.25;62.26;101845.34;4999985;28;45348;-48
2021/11/22 11:09:59;;;;;;;;;11.75;9.25;;;;;12.31;62.37;101843.59;4999726;28;45428;-50
2021/11/22 11:12:25;;;;;;;;;15.00;10.50;;;;;12.38;62.25;101846.16;5002926;28;45334;-50
2021/11/22 11:14:53;;;;;;;;;10.25;10.00;;;;;12.42;62.33;101843.53;5001931;28;46245;-49
2021/11/22 11:17:23;;;;;;;;;13.50;10.25;;;;;12.46;62.37;101849.66;5003156;28;45250;-47
2021/11/22 11:19:57;;;;;;;;;8.00;7.25;;;;;12.51;62.21;101837.34;5003417;28;45331;-48